Time;durP1;ratioP1;P1;durP2;ratioP2;P2;SDS_P1;SDS_P2;PMS_P1;PMS_P2;Temp;Humidity;BMP_temperature;BMP_pressure;BME280_temperature;BME280_humidity;BME280_pressure;Samples;Min_cycle;Max_cycle;Signal;HPM_P1;HPM_P2
2021/05/31 00:00:30;;;;;;;8.05;3.97;;;;;19.90;102368.00;;;;5066725;28;20246;-76
2021/05/31 00:02:57;;;;;;;5.93;4.50;;;;;19.90;102357.00;;;;5066698;28;20213;-76
2021/05/31 00:05:25;;;;;;;5.88;4.03;;;;;19.90;102351.00;;;;5066247;28;20191;-77
2021/05/31 00:07:53;;;;;;;6.13;4.28;;;;;19.80;102351.00;;;;5067081;28;20206;-76
2021/05/31 00:10:20;;;;;;;5.53;3.70;;;;;19.80;102356.00;;;;5067543;28;20258;-77
2021/05/31 00:12:47;;;;;;;5.20;3.95;;;;;19.80;102353.00;;;;5067589;28;20735;-76
2021/05/31 00:15:14;;;;;;;4.68;4.18;;;;;19.70;102347.00;;;;5065850;28;20685;-77
2021/05/31 00:17:41;;;;;;;4.75;3.90;;;;;19.70;102349.00;;;;5074671;28;20619;-76
2021/05/31 00:20:11;;;;;;;4.47;3.85;;;;;19.60;102353.00;;;;5085590;28;20695;-77
2021/05/31 00:22:38;;;;;;;4.68;4.10;;;;;19.60;102349.00;;;;5084798;28;20194;-76
2021/05/31 00:25:06;;;;;;;5.22;4.07;;;;;19.60;102353.00;;;;5069363;28;20261;-77
2021/05/31 00:27:33;;;;;;;4.65;3.65;;;;;19.60;102357.00;;;;5067133;28;20650;-76
2021/05/31 00:29:59;;;;;;;4.88;3.78;;;;;19.50;102352.00;;;;5070324;28;20704;-77
2021/05/31 00:32:26;;;;;;;6.88;4.22;;;;;19.50;102352.00;;;;5070314;28;20194;-76
2021/05/31 00:34:53;;;;;;;5.93;4.20;;;;;19.50;102349.00;;;;5070785;28;20214;-76
2021/05/31 00:37:20;;;;;;;5.35;3.85;;;;;19.40;102350.00;;;;5070146;28;20199;-77
2021/05/31 00:39:47;;;;;;;4.50;4.05;;;;;19.40;102336.00;;;;5088199;28;20664;-76
2021/05/31 00:42:14;;;;;;;5.40;3.92;;;;;19.40;102337.00;;;;5090443;28;20190;-77
2021/05/31 00:44:41;;;;;;;4.20;3.60;;;;;19.40;102338.00;;;;5070994;28;20622;-77
2021/05/31 00:47:08;;;;;;;6.38;4.32;;;;;19.40;102339.00;;;;5085979;28;20252;-76
2021/05/31 00:49:38;;;;;;;7.65;4.72;;;;;19.30;102338.00;;;;5071891;28;20218;-77
2021/05/31 00:52:05;;;;;;;9.95;4.40;;;;;19.30;102340.00;;;;5072006;28;20202;-77
2021/05/31 00:54:33;;;;;;;4.80;4.15;;;;;19.30;102332.00;;;;5087402;28;20198;-76
2021/05/31 00:57:00;;;;;;;5.40;4.18;;;;;19.30;102330.00;;;;5072162;28;20597;-76
2021/05/31 00:59:26;;;;;;;5.22;4.32;;;;;19.20;102335.00;;;;5071741;28;20191;-77
2021/05/31 01:01:54;;;;;;;6.03;4.07;;;;;19.20;102334.00;;;;5077614;28;20222;-77
2021/05/31 01:04:20;;;;;;;5.00;3.90;;;;;19.20;102337.00;;;;5080181;28;20191;-76
2021/05/31 01:06:55;;;;;;;7.93;4.20;;;;;19.10;102328.00;;;;5069561;28;20203;-76
2021/05/31 01:09:29;;;;;;;6.40;4.45;;;;;19.10;102329.00;;;;5069409;28;20267;-77
2021/05/31 01:12:06;;;;;;;5.95;4.18;;;;;19.10;102335.00;;;;5068908;28;20206;-77
2021/05/31 01:14:41;;;;;;;6.07;4.05;;;;;19.10;102332.00;;;;5068931;28;20207;-77
2021/05/31 01:17:13;;;;;;;4.43;3.88;;;;;19.00;102330.00;;;;5078391;28;20217;-77
2021/05/31 01:20:08;;;;;;;4.95;3.60;;;;;18.90;102328.00;;;;5078615;28;20195;-77
2021/05/31 01:22:38;;;;;;;6.18;4.13;;;;;19.00;102329.00;;;;5082413;28;20716;-77
2021/05/31 01:25:21;;;;;;;5.53;4.00;;;;;18.90;102332.00;;;;5069795;28;20221;-77
2021/05/31 01:28:15;;;;;;;5.00;4.00;;;;;18.90;102334.00;;;;5069965;28;20256;-77
2021/05/31 01:30:47;;;;;;;4.55;4.00;;;;;18.90;102335.00;;;;5071549;28;20195;-77
2021/05/31 01:33:17;;;;;;;7.88;4.50;;;;;19.00;102336.00;;;;5068197;28;20195;-77
2021/05/31 01:35:45;;;;;;;7.82;4.72;;;;;18.90;102336.00;;;;5069486;28;20195;-77
2021/05/31 01:38:15;;;;;;;7.35;4.18;;;;;18.90;102332.00;;;;5069092;28;20298;-78
2021/05/31 01:40:42;;;;;;;7.38;4.30;;;;;18.90;102337.00;;;;5071706;28;20291;-77
2021/05/31 01:43:10;;;;;;;7.13;4.07;;;;;18.90;102342.00;;;;5085435;28;20199;-77
2021/05/31 01:45:37;;;;;;;7.35;4.43;;;;;18.90;102334.00;;;;5067874;28;20207;-77
2021/05/31 01:48:09;;;;;;;5.75;3.75;;;;;18.80;102341.00;;;;5069778;28;20191;-76
2021/05/31 01:50:36;;;;;;;7.32;4.35;;;;;18.80;102332.00;;;;5069615;28;20210;-77
2021/05/31 01:53:05;;;;;;;6.72;4.30;;;;;18.80;102326.00;;;;5069782;28;20203;-77
2021/05/31 01:55:32;;;;;;;5.88;4.55;;;;;18.80;102323.00;;;;5070471;28;20507;-76
2021/05/31 01:57:59;;;;;;;5.15;4.30;;;;;18.70;102322.00;;;;5070939;28;20195;-76
2021/05/31 02:00:27;;;;;;;5.18;4.40;;;;;18.70;102318.00;;;;5068573;28;20221;-76
2021/05/31 02:02:54;;;;;;;8.27;4.80;;;;;18.70;102324.00;;;;5069911;28;20203;-75
2021/05/31 02:05:22;;;;;;;5.25;4.05;;;;;18.60;102324.00;;;;5088887;28;20202;-76
2021/05/31 02:07:48;;;;;;;5.45;4.22;;;;;18.60;102321.00;;;;5070203;28;20199;-76
2021/05/31 02:10:16;;;;;;;8.75;4.35;;;;;18.60;102324.00;;;;5069635;28;20234;-76
2021/05/31 02:12:49;;;;;;;6.72;4.68;;;;;18.60;102318.00;;;;5080983;28;20194;-76
2021/05/31 02:15:20;;;;;;;11.45;4.60;;;;;18.50;102323.00;;;;5071728;28;20229;-76
2021/05/31 02:17:55;;;;;;;4.95;4.20;;;;;18.50;102315.00;;;;5068847;28;20191;-76
2021/05/31 02:20:25;;;;;;;7.72;4.85;;;;;18.50;102313.00;;;;5071120;28;20252;-76
2021/05/31 02:22:56;;;;;;;4.75;4.05;;;;;18.40;102315.00;;;;5088065;28;20664;-76
2021/05/31 02:25:24;;;;;;;5.60;4.45;;;;;18.40;102317.00;;;;5068825;28;20570;-75
2021/05/31 02:27:52;;;;;;;8.32;5.13;;;;;18.40;102307.00;;;;5069249;28;20299;-76
2021/05/31 02:30:21;;;;;;;7.78;4.18;;;;;18.40;102316.00;;;;5069261;28;20669;-76
2021/05/31 02:32:53;;;;;;;5.75;4.78;;;;;18.30;102316.00;;;;5073215;28;20357;-77
2021/05/31 02:35:20;;;;;;;6.57;4.82;;;;;18.40;102314.00;;;;5068096;28;20217;-76
2021/05/31 02:37:49;;;;;;;6.45;4.65;;;;;18.30;102316.00;;;;5070302;28;20201;-77
2021/05/31 02:40:17;;;;;;;9.02;5.57;;;;;18.30;102315.00;;;;5068129;28;20209;-77
2021/05/31 02:42:46;;;;;;;5.53;4.47;;;;;18.30;102307.00;;;;5068717;28;20228;-76
2021/05/31 02:45:14;;;;;;;8.63;4.60;;;;;18.30;102317.00;;;;5067825;28;20202;-76
2021/05/31 02:47:41;;;;;;;7.47;4.68;;;;;18.20;102309.00;;;;5074408;28;20194;-77
2021/05/31 02:50:09;;;;;;;6.85;5.05;;;;;18.20;102313.00;;;;5080375;28;20637;-76
2021/05/31 02:52:39;;;;;;;5.32;4.55;;;;;18.20;102315.00;;;;5068377;28;20222;-77
2021/05/31 02:55:09;;;;;;;6.05;4.40;;;;;18.20;102321.00;;;;5073918;28;20289;-76
2021/05/31 02:57:36;;;;;;;6.88;4.65;;;;;18.20;102322.00;;;;5073036;28;20203;-77
2021/05/31 03:00:05;;;;;;;6.60;4.57;;;;;18.10;102317.00;;;;5074680;28;20203;-77
2021/05/31 03:02:32;;;;;;;7.93;5.50;;;;;18.10;102317.00;;;;5074733;28;20191;-76
2021/05/31 03:04:59;;;;;;;6.82;4.50;;;;;18.10;102315.00;;;;5071730;28;20668;-76
2021/05/31 03:07:26;;;;;;;7.63;5.00;;;;;18.10;102319.00;;;;5069871;28;20207;-77
2021/05/31 03:09:53;;;;;;;8.38;4.63;;;;;18.10;102319.00;;;;5067605;28;20227;-76
2021/05/31 03:12:21;;;;;;;6.28;5.18;;;;;18.00;102311.00;;;;5067706;28;20237;-77
2021/05/31 03:14:49;;;;;;;8.77;5.30;;;;;18.00;102316.00;;;;5070443;28;20619;-77
2021/05/31 03:17:16;;;;;;;6.30;4.63;;;;;18.00;102319.00;;;;5067425;28;20623;-77
2021/05/31 03:19:43;;;;;;;7.28;4.63;;;;;18.00;102321.00;;;;5066709;28;20203;-76
2021/05/31 03:22:09;;;;;;;6.95;5.15;;;;;18.00;102323.00;;;;5067200;28;20222;-76
2021/05/31 03:24:36;;;;;;;5.30;4.80;;;;;18.00;102314.00;;;;5072125;28;20202;-76
2021/05/31 03:27:03;;;;;;;9.35;5.32;;;;;18.00;102325.00;;;;5070774;28;20194;-77
2021/05/31 03:29:32;;;;;;;6.88;5.43;;;;;17.90;102307.00;;;;5067080;28;20194;-76
2021/05/31 03:31:59;;;;;;;7.63;5.10;;;;;17.90;102314.00;;;;5076474;28;20673;-76
2021/05/31 03:34:27;;;;;;;6.35;5.45;;;;;17.90;102312.00;;;;5083296;28;20206;-77
2021/05/31 03:36:54;;;;;;;8.35;5.50;;;;;17.90;102315.00;;;;5086684;28;20251;-77
2021/05/31 03:39:21;;;;;;;6.90;4.97;;;;;17.90;102315.00;;;;5076103;28;20762;-77
2021/05/31 03:41:48;;;;;;;6.00;4.97;;;;;17.90;102313.00;;;;5067340;28;20215;-77
2021/05/31 03:44:15;;;;;;;8.95;5.13;;;;;17.80;102302.00;;;;5067798;28;20197;-77
2021/05/31 03:46:43;;;;;;;6.57;5.20;;;;;17.80;102309.00;;;;5075049;28;20656;-77
2021/05/31 03:49:10;;;;;;;9.82;5.63;;;;;17.80;102316.00;;;;5067307;28;20198;-77
2021/05/31 03:51:36;;;;;;;6.50;4.97;;;;;17.80;102303.00;;;;5068148;28;20195;-77
2021/05/31 03:54:04;;;;;;;6.03;5.22;;;;;17.80;102310.00;;;;5068406;28;20210;-77
2021/05/31 03:56:31;;;;;;;8.52;6.10;;;;;17.80;102309.00;;;;5077969;28;20283;-77
2021/05/31 03:58:58;;;;;;;6.78;5.57;;;;;17.80;102312.00;;;;5071304;28;20553;-77
2021/05/31 04:01:25;;;;;;;8.52;6.20;;;;;17.80;102313.00;;;;5073273;28;20224;-77
2021/05/31 04:03:53;;;;;;;9.48;5.47;;;;;17.80;102313.00;;;;5069517;28;20194;-77
2021/05/31 04:06:26;;;;;;;7.47;5.47;;;;;17.80;102317.00;;;;5088750;28;20260;-77
2021/05/31 04:11:37;;;;;;;6.80;5.03;;;;;17.80;102315.00;;;;5071895;28;20209;-77
2021/05/31 04:14:07;;;;;;;7.68;4.93;;;;;17.80;102314.00;;;;5072397;28;20220;-77
2021/05/31 04:16:34;;;;;;;9.48;5.03;;;;;17.80;102322.00;;;;5073700;28;20202;-77
2021/05/31 04:19:04;;;;;;;8.00;4.90;;;;;17.80;102324.00;;;;5072288;28;20886;-77
2021/05/31 04:21:31;;;;;;;7.35;5.63;;;;;17.80;102316.00;;;;5071082;28;20227;-77
2021/05/31 04:23:58;;;;;;;6.78;4.85;;;;;17.80;102320.00;;;;5081768;28;20194;-77
2021/05/31 04:26:25;;;;;;;12.52;5.78;;;;;17.90;102321.00;;;;5077102;28;20203;-77
2021/05/31 04:28:52;;;;;;;8.85;5.95;;;;;17.90;102310.00;;;;5071403;28;20199;-77
2021/05/31 04:31:19;;;;;;;7.57;5.75;;;;;17.90;102313.00;;;;5070735;28;20203;-77
2021/05/31 04:33:46;;;;;;;7.10;5.55;;;;;17.90;102313.00;;;;5071064;28;20211;-77
2021/05/31 04:36:14;;;;;;;7.07;5.60;;;;;17.90;102314.00;;;;5075771;28;20195;-77
2021/05/31 04:38:41;;;;;;;8.18;5.63;;;;;18.00;102315.00;;;;5070397;28;20203;-77
2021/05/31 04:41:08;;;;;;;8.93;6.25;;;;;18.00;102315.00;;;;5071104;28;20578;-78
2021/05/31 04:43:35;;;;;;;10.45;5.47;;;;;18.00;102304.00;;;;5071163;28;20225;-77
2021/05/31 04:46:03;;;;;;;7.28;5.43;;;;;18.10;102310.00;;;;5077955;28;20276;-77
2021/05/31 04:48:31;;;;;;;8.32;5.70;;;;;18.10;102309.00;;;;5084542;28;20285;-78
2021/05/31 04:50:58;;;;;;;9.43;5.80;;;;;18.10;102315.00;;;;5070349;28;20195;-77
2021/05/31 04:53:28;;;;;;;8.20;4.90;;;;;18.20;102310.00;;;;5073082;28;20229;-77
2021/05/31 04:55:55;;;;;;;9.68;5.22;;;;;18.20;102309.00;;;;5080301;28;20668;-78
2021/05/31 04:58:23;;;;;;;7.85;4.90;;;;;18.30;102313.00;;;;5097593;28;20221;-78
2021/05/31 05:00:51;;;;;;;9.80;6.15;;;;;18.30;102311.00;;;;5076788;28;20229;-78
2021/05/31 05:03:18;;;;;;;7.03;4.68;;;;;18.40;102304.00;;;;5085329;28;20194;-78
2021/05/31 05:05:45;;;;;;;6.22;4.82;;;;;18.40;102305.00;;;;5083895;28;20194;-78
2021/05/31 05:08:12;;;;;;;8.40;6.28;;;;;18.50;102301.00;;;;5076754;28;20244;-78
2021/05/31 05:10:40;;;;;;;8.93;5.53;;;;;18.60;102300.00;;;;5086037;28;20225;-78
2021/05/31 05:13:07;;;;;;;8.00;4.65;;;;;18.60;102306.00;;;;5094719;28;20194;-78
2021/05/31 05:15:35;;;;;;;9.15;5.50;;;;;18.70;102302.00;;;;5108680;28;20680;-78
2021/05/31 05:18:02;;;;;;;7.90;5.60;;;;;18.70;102304.00;;;;5086179;28;20224;-78
2021/05/31 05:20:31;;;;;;;9.48;5.78;;;;;18.80;102304.00;;;;5085849;28;20324;-78
2021/05/31 05:22:58;;;;;;;7.40;5.32;;;;;18.90;102300.00;;;;5075440;28;20674;-79
2021/05/31 05:25:25;;;;;;;7.40;5.25;;;;;18.90;102298.00;;;;5089668;28;20228;-78
2021/05/31 05:27:54;;;;;;;10.25;5.93;;;;;19.00;102307.00;;;;5081216;28;20199;-78
2021/05/31 05:30:24;;;;;;;8.77;5.47;;;;;19.10;102299.00;;;;5077663;28;20199;-78
2021/05/31 05:32:52;;;;;;;6.85;5.25;;;;;19.10;102297.00;;;;5079347;28;20202;-79
2021/05/31 05:35:25;;;;;;;7.22;5.43;;;;;19.20;102296.00;;;;5075557;28;20210;-79
2021/05/31 05:43:38;;;;;;;9.57;5.38;;;;;19.40;102296.00;;;;5053590;28;20225;-79
2021/05/31 05:46:23;;;;;;;5.72;4.07;;;;;19.50;102294.00;;;;5076342;28;20286;-77
2021/05/31 05:48:51;;;;;;;7.82;5.13;;;;;19.60;102293.00;;;;5079913;28;20217;-77
2021/05/31 05:51:18;;;;;;;5.90;5.10;;;;;19.70;102297.00;;;;5076152;28;20265;-78
2021/05/31 05:53:47;;;;;;;5.80;4.63;;;;;19.70;102290.00;;;;5068949;28;20203;-78
2021/05/31 05:56:15;;;;;;;6.95;5.25;;;;;19.80;102298.00;;;;5078679;28;20209;-78
2021/05/31 05:58:43;;;;;;;7.35;5.22;;;;;19.90;102304.00;;;;5089888;28;20617;-77
2021/05/31 06:01:11;;;;;;;9.88;5.32;;;;;20.00;102299.00;;;;5081679;28;20300;-78
2021/05/31 06:03:39;;;;;;;7.43;5.40;;;;;20.00;102294.00;;;;5069197;28;20206;-80
2021/05/31 06:06:06;;;;;;;8.05;5.10;;;;;20.10;102298.00;;;;5068368;28;20294;-80
2021/05/31 06:08:33;;;;;;;9.02;5.82;;;;;20.20;102297.00;;;;5083092;28;20210;-80
2021/05/31 06:11:00;;;;;;;7.93;5.28;;;;;20.30;102296.00;;;;5089361;28;20234;-81
2021/05/31 06:13:27;;;;;;;8.40;5.32;;;;;20.40;102291.00;;;;5089586;28;20202;-81
2021/05/31 06:15:59;;;;;;;6.57;4.93;;;;;20.40;102289.00;;;;5071694;28;20206;-81
2021/05/31 06:18:26;;;;;;;7.28;5.50;;;;;20.50;102294.00;;;;5068551;28;20198;-80
2021/05/31 06:20:53;;;;;;;7.60;5.15;;;;;20.60;102294.00;;;;5069274;28;20226;-80
2021/05/31 06:23:20;;;;;;;8.15;5.40;;;;;20.70;102292.00;;;;5075504;28;20206;-82
2021/05/31 06:25:47;;;;;;;8.77;5.55;;;;;20.80;102288.00;;;;5077800;28;20206;-81
2021/05/31 06:28:14;;;;;;;7.60;5.47;;;;;20.90;102289.00;;;;5085428;28;20206;-80
2021/05/31 06:30:40;;;;;;;7.50;5.55;;;;;21.00;102282.00;;;;5088836;28;20225;-81
2021/05/31 06:33:09;;;;;;;5.90;4.82;;;;;21.00;102286.00;;;;5088532;28;20699;-81
2021/05/31 06:35:36;;;;;;;9.60;5.35;;;;;21.10;102281.00;;;;5069806;28;20619;-81
2021/05/31 06:38:04;;;;;;;6.45;4.75;;;;;21.20;102291.00;;;;5069328;28;20258;-80
2021/05/31 06:40:31;;;;;;;6.82;5.88;;;;;21.30;102283.00;;;;5072836;28;20202;-82
2021/05/31 06:42:59;;;;;;;6.32;4.22;;;;;21.40;102280.00;;;;5081870;28;20198;-82
2021/05/31 06:45:27;;;;;;;5.88;5.20;;;;;21.50;102282.00;;;;5087702;28;20206;-81
2021/05/31 06:47:56;;;;;;;8.35;6.28;;;;;21.60;102284.00;;;;5073641;28;20649;-82
2021/05/31 06:50:26;;;;;;;9.25;5.85;;;;;21.70;102287.00;;;;5086263;28;20201;-82
2021/05/31 06:52:53;;;;;;;7.85;5.10;;;;;21.80;102294.00;;;;5086804;28;20209;-82
2021/05/31 06:55:22;;;;;;;6.38;4.88;;;;;21.90;102282.00;;;;5075630;28;20229;-81
2021/05/31 06:57:50;;;;;;;7.95;5.15;;;;;22.00;102285.00;;;;5068443;28;20203;-81
2021/05/31 07:00:19;;;;;;;8.38;5.65;;;;;22.10;102281.00;;;;5067212;28;20408;-81
2021/05/31 07:02:46;;;;;;;7.03;4.70;;;;;22.20;102286.00;;;;5076611;28;20313;-83
2021/05/31 07:05:13;;;;;;;8.20;5.05;;;;;22.40;102279.00;;;;5077705;28;20194;-81
2021/05/31 07:07:41;;;;;;;7.32;5.93;;;;;22.40;102268.00;;;;5080946;28;20256;-81
2021/05/31 07:10:10;;;;;;;10.13;6.00;;;;;22.60;102279.00;;;;5071830;28;20223;-82
2021/05/31 07:12:37;;;;;;;7.53;6.15;;;;;22.70;102287.00;;;;5066705;28;20624;-83
2021/05/31 07:15:06;;;;;;;9.85;5.93;;;;;22.80;102280.00;;;;5071097;28;20218;-82
2021/05/31 07:17:34;;;;;;;10.82;5.45;;;;;22.90;102276.00;;;;5066316;28;20203;-81
2021/05/31 07:20:01;;;;;;;6.30;5.70;;;;;23.00;102277.00;;;;5068024;28;20203;-81
2021/05/31 07:22:29;;;;;;;9.73;6.10;;;;;23.10;102274.00;;;;5067094;28;20225;-83
2021/05/31 07:24:57;;;;;;;10.82;5.25;;;;;23.20;102277.00;;;;5071166;28;20211;-80
2021/05/31 07:27:24;;;;;;;7.45;6.20;;;;;23.30;102280.00;;;;5069930;28;20637;-81
2021/05/31 07:29:51;;;;;;;5.95;4.95;;;;;23.40;102282.00;;;;5070386;28;20683;-80
2021/05/31 07:32:18;;;;;;;9.38;5.90;;;;;23.60;102278.00;;;;5072721;28;20202;-80
2021/05/31 07:34:45;;;;;;;9.00;5.85;;;;;23.70;102276.00;;;;5066148;28;20218;-80
2021/05/31 07:37:12;;;;;;;7.88;5.15;;;;;23.80;102274.00;;;;5066002;28;20198;-81
2021/05/31 07:39:39;;;;;;;7.03;5.18;;;;;23.90;102280.00;;;;5076801;28;20689;-80
2021/05/31 07:42:07;;;;;;;8.88;5.90;;;;;24.00;102269.00;;;;5072008;28;20226;-79
2021/05/31 07:44:34;;;;;;;7.18;5.97;;;;;24.20;102269.00;;;;5070766;28;20206;-81
2021/05/31 07:47:02;;;;;;;8.60;5.82;;;;;24.30;102267.00;;;;5075582;28;20195;-79
2021/05/31 07:49:32;;;;;;;7.00;5.00;;;;;24.40;102268.00;;;;5072286;28;20263;-81
2021/05/31 07:52:07;;;;;;;9.93;5.88;;;;;24.60;102264.00;;;;5066610;28;20199;-79
2021/05/31 07:54:34;;;;;;;8.48;6.07;;;;;24.70;102261.00;;;;5068936;28;20589;-80
2021/05/31 07:57:01;;;;;;;6.80;5.60;;;;;24.90;102266.00;;;;5079552;28;20194;-80
2021/05/31 07:59:29;;;;;;;6.80;4.90;;;;;25.00;102268.00;;;;5072175;28;20207;-80
2021/05/31 08:01:55;;;;;;;9.48;5.85;;;;;25.20;102270.00;;;;5076045;28;20222;-80
2021/05/31 08:04:22;;;;;;;9.10;6.05;;;;;25.30;102275.00;;;;5075982;28;20194;-81
2021/05/31 08:06:49;;;;;;;5.40;4.90;;;;;25.40;102267.00;;;;5073843;28;20206;-79
2021/05/31 08:09:16;;;;;;;8.65;5.13;;;;;25.60;102268.00;;;;5076145;28;20238;-81
2021/05/31 08:11:42;;;;;;;6.50;5.32;;;;;25.70;102270.00;;;;5072725;28;20202;-80
2021/05/31 08:14:09;;;;;;;7.03;4.85;;;;;25.90;102266.00;;;;5070927;28;20195;-80
2021/05/31 08:16:37;;;;;;;5.07;4.18;;;;;26.00;102270.00;;;;5075503;28;20198;-81
2021/05/31 08:19:04;;;;;;;5.53;4.30;;;;;26.10;102262.00;;;;5071398;28;20245;-81
2021/05/31 08:21:32;;;;;;;4.55;4.03;;;;;26.20;102269.00;;;;5072452;28;20608;-82
2021/05/31 08:23:59;;;;;;;6.35;4.38;;;;;26.40;102276.00;;;;5080755;28;20568;-82
2021/05/31 08:26:26;;;;;;;7.30;5.30;;;;;26.50;102271.00;;;;5075089;28;20222;-82
2021/05/31 08:28:52;;;;;;;5.90;4.45;;;;;26.70;102277.00;;;;5072200;28;20202;-82
2021/05/31 08:31:19;;;;;;;6.18;4.43;;;;;26.80;102279.00;;;;5077206;28;20198;-82
2021/05/31 08:33:48;;;;;;;6.15;4.82;;;;;26.90;102275.00;;;;5068552;28;20705;-80
2021/05/31 08:36:15;;;;;;;7.55;4.68;;;;;27.00;102279.00;;;;5073927;28;20203;-83
2021/05/31 08:38:42;;;;;;;6.03;4.57;;;;;27.10;102270.00;;;;5072493;28;20203;-83
2021/05/31 08:41:08;;;;;;;5.78;4.78;;;;;27.20;102271.00;;;;5066673;28;20222;-82
2021/05/31 08:43:35;;;;;;;7.75;4.30;;;;;27.30;102270.00;;;;5074104;28;20575;-81
2021/05/31 08:46:02;;;;;;;6.82;4.78;;;;;27.50;102269.00;;;;5077741;28;20199;-82
2021/05/31 08:48:29;;;;;;;5.97;4.10;;;;;27.60;102269.00;;;;5072547;28;20507;-78
2021/05/31 08:50:58;;;;;;;24.77;3.85;;;;;27.60;102271.00;;;;5070017;28;20207;-78
2021/05/31 08:53:24;;;;;;;4.72;3.53;;;;;27.70;102265.00;;;;5073928;28;20217;-79
2021/05/31 08:55:51;;;;;;;4.72;3.80;;;;;27.80;102266.00;;;;5074528;28;20199;-78
2021/05/31 08:58:19;;;;;;;5.07;3.90;;;;;27.90;102257.00;;;;5081478;28;20662;-79
2021/05/31 09:00:46;;;;;;;6.82;3.83;;;;;28.00;102255.00;;;;5075064;28;20260;-78
2021/05/31 09:03:13;;;;;;;5.25;3.85;;;;;28.10;102252.00;;;;5080788;28;20194;-78
2021/05/31 09:05:41;;;;;;;3.85;3.40;;;;;28.20;102247.00;;;;5072656;28;20686;-79
2021/05/31 09:08:11;;;;;;;4.20;3.53;;;;;28.20;102244.00;;;;5075403;28;20205;-80
2021/05/31 09:10:43;;;;;;;4.70;3.70;;;;;28.30;102242.00;;;;5081079;28;20222;-80
2021/05/31 09:13:11;;;;;;;5.28;4.00;;;;;28.40;102234.00;;;;5077284;28;20289;-80
2021/05/31 09:15:43;;;;;;;6.88;4.03;;;;;28.60;102239.00;;;;5083393;28;20209;-80
2021/05/31 09:18:11;;;;;;;5.55;3.97;;;;;28.60;102235.00;;;;5073576;28;20427;-79
2021/05/31 09:20:37;;;;;;;4.43;3.40;;;;;28.70;102238.00;;;;5071506;28;20199;-80
2021/05/31 09:23:04;;;;;;;6.07;4.10;;;;;28.80;102231.00;;;;5074491;28;20749;-80
2021/05/31 09:25:34;;;;;;;9.95;4.13;;;;;28.90;102232.00;;;;5068942;28;20206;-79
2021/05/31 09:28:05;;;;;;;5.88;3.10;;;;;29.00;102231.00;;;;5067814;28;20230;-79
2021/05/31 09:30:37;;;;;;;3.63;2.22;;;;;29.10;102234.00;;;;5075500;28;20205;-79
2021/05/31 09:33:07;;;;;;;5.18;2.97;;;;;29.20;102242.00;;;;5099871;28;20194;-78
2021/05/31 09:35:34;;;;;;;4.57;2.92;;;;;29.20;102232.00;;;;5089564;28;20224;-80
2021/05/31 09:38:02;;;;;;;4.18;3.03;;;;;29.30;102231.00;;;;5074386;28;20249;-80
2021/05/31 09:40:29;;;;;;;3.15;2.67;;;;;29.40;102234.00;;;;5081034;28;20620;-80
2021/05/31 09:43:00;;;;;;;5.90;3.45;;;;;29.40;102232.00;;;;5070107;28;20218;-79
2021/05/31 09:45:29;;;;;;;6.57;3.45;;;;;29.50;102231.00;;;;5072473;28;20198;-80
2021/05/31 09:48:00;;;;;;;4.18;3.15;;;;;29.50;102225.00;;;;5074827;28;20210;-79
2021/05/31 09:50:28;;;;;;;4.05;3.28;;;;;29.70;102228.00;;;;5081195;28;20230;-79
2021/05/31 09:53:07;;;;;;;3.45;3.10;;;;;29.70;102228.00;;;;5069283;28;20195;-79
2021/05/31 09:55:37;;;;;;;4.32;3.10;;;;;29.80;102221.00;;;;5077305;28;20198;-78
2021/05/31 09:58:09;;;;;;;3.70;2.30;;;;;29.80;102222.00;;;;5069394;28;20226;-78
2021/05/31 10:00:36;;;;;;;2.60;2.20;;;;;29.80;102223.00;;;;5076788;28;20206;-79
2021/05/31 10:03:29;;;;;;;2.92;2.38;;;;;29.80;102218.00;;;;5086305;28;20587;-79
2021/05/31 10:06:04;;;;;;;5.38;3.00;;;;;29.90;102224.00;;;;5076807;28;20764;-79
2021/05/31 10:08:41;;;;;;;4.97;3.22;;;;;30.00;102207.00;;;;5071714;28;20203;-79
2021/05/31 10:11:08;;;;;;;3.15;2.65;;;;;30.00;102207.00;;;;5030098;28;20238;-80
2021/05/31 10:13:40;;;;;;;5.82;3.38;;;;;30.00;102205.00;;;;5028730;28;20212;-79
2021/05/31 10:16:08;;;;;;;4.25;3.35;;;;;30.00;102205.00;;;;5037103;28;20269;-79
2021/05/31 10:18:41;;;;;;;5.43;3.47;;;;;30.00;102203.00;;;;5028482;28;20204;-79
2021/05/31 10:21:08;;;;;;;4.57;3.83;;;;;30.00;102202.00;;;;5041303;28;20200;-80
2021/05/31 10:23:35;;;;;;;4.55;3.45;;;;;30.00;102195.00;;;;5045102;28;20660;-77
2021/05/31 10:26:04;;;;;;;3.83;2.70;;;;;30.10;102195.00;;;;5044267;28;20199;-78
2021/05/31 10:28:33;;;;;;;3.95;2.88;;;;;30.10;102195.00;;;;5036532;28;20224;-77
2021/05/31 10:31:04;;;;;;;4.28;2.67;;;;;30.20;102201.00;;;;5033686;28;20206;-79
2021/05/31 10:33:37;;;;;;;3.33;2.40;;;;;30.20;102200.00;;;;5040063;28;20203;-79
2021/05/31 10:36:11;;;;;;;3.47;2.70;;;;;30.20;102196.00;;;;5043968;28;20203;-77
2021/05/31 10:38:39;;;;;;;4.80;3.03;;;;;30.30;102193.00;;;;5032740;28;20200;-79
2021/05/31 10:41:13;;;;;;;4.07;3.05;;;;;30.20;102179.00;;;;5040404;28;20203;-79
2021/05/31 10:43:48;;;;;;;4.22;3.17;;;;;30.30;102183.00;;;;5031159;28;20200;-78
2021/05/31 10:46:19;;;;;;;3.17;2.45;;;;;30.30;102182.00;;;;5033198;28;20199;-79
2021/05/31 10:48:49;;;;;;;3.42;2.25;;;;;30.30;102175.00;;;;5036694;28;20295;-80
2021/05/31 10:51:18;;;;;;;2.40;2.05;;;;;30.30;102180.00;;;;5049682;28;20249;-78
2021/05/31 10:53:46;;;;;;;3.78;1.75;;;;;30.40;102180.00;;;;5052799;28;20199;-78
2021/05/31 10:56:24;;;;;;;3.28;2.28;;;;;30.30;102175.00;;;;5051872;28;20219;-79
2021/05/31 10:58:53;;;;;;;11.80;2.80;;;;;30.40;102174.00;;;;5035844;28;20196;-78
2021/05/31 11:01:22;;;;;;;3.90;3.45;;;;;30.40;102176.00;;;;5033756;28;20212;-78
2021/05/31 11:03:52;;;;;;;4.43;3.08;;;;;30.40;102171.00;;;;5040184;28;20323;-78
2021/05/31 11:06:21;;;;;;;3.35;2.67;;;;;30.40;102170.00;;;;5047493;28;20287;-77
2021/05/31 11:08:52;;;;;;;3.42;2.80;;;;;30.40;102167.00;;;;5048175;28;20203;-78
2021/05/31 11:11:28;;;;;;;2.60;2.40;;;;;30.40;102172.00;;;;5089667;28;20206;-78
2021/05/31 11:13:56;;;;;;;3.85;2.92;;;;;30.40;102166.00;;;;5085982;28;20228;-79
2021/05/31 11:16:25;;;;;;;3.20;2.25;;;;;30.40;102163.00;;;;5074584;28;20668;-78
2021/05/31 11:18:57;;;;;;;3.97;2.28;;;;;30.40;102153.00;;;;5083169;28;20198;-79
2021/05/31 11:21:30;;;;;;;2.53;2.33;;;;;30.40;102155.00;;;;5080864;28;20229;-78
2021/05/31 11:24:00;;;;;;;2.38;2.15;;;;;30.40;102155.00;;;;5075809;28;20199;-78
2021/05/31 11:26:28;;;;;;;2.47;2.00;;;;;30.40;102149.00;;;;5090992;28;20676;-78
2021/05/31 11:28:56;;;;;;;3.53;2.25;;;;;30.30;102161.00;;;;5084142;28;20195;-77
2021/05/31 11:31:25;;;;;;;2.38;1.90;;;;;30.30;102148.00;;;;5069665;28;20577;-78
2021/05/31 11:33:54;;;;;;;2.17;1.98;;;;;30.30;102137.00;;;;5072599;28;20554;-78
2021/05/31 11:36:36;;;;;;;4.25;2.30;;;;;30.20;102128.00;;;;5070843;28;20195;-79
2021/05/31 11:39:07;;;;;;;3.28;2.30;;;;;30.30;102136.00;;;;5068626;28;20194;-77
2021/05/31 11:41:41;;;;;;;2.42;2.20;;;;;30.30;102142.00;;;;5074609;28;20264;-80
2021/05/31 11:44:09;;;;;;;4.10;2.42;;;;;30.40;102140.00;;;;5074380;28;20209;-80
2021/05/31 11:46:52;;;;;;;3.15;2.13;;;;;30.30;102127.00;;;;5076367;28;21107;-78
2021/05/31 11:49:20;;;;;;;3.35;2.35;;;;;30.40;102112.00;;;;5071934;28;20199;-79
2021/05/31 11:52:05;;;;;;;4.18;2.28;;;;;30.30;102130.00;;;;5075163;28;20202;-78
2021/05/31 11:54:34;;;;;;;2.50;2.17;;;;;30.50;102121.00;;;;5078027;28;20243;-78
2021/05/31 11:57:02;;;;;;;3.22;2.28;;;;;30.50;102117.00;;;;5074711;28;20206;-79
2021/05/31 11:59:33;;;;;;;2.60;2.03;;;;;30.40;102110.00;;;;5069723;28;20195;-79
2021/05/31 12:02:04;;;;;;;2.42;2.00;;;;;30.50;102111.00;;;;5068530;28;21101;-79
2021/05/31 12:04:31;;;;;;;2.10;1.90;;;;;30.50;102116.00;;;;5090345;28;20189;-78
2021/05/31 12:07:00;;;;;;;2.70;2.08;;;;;30.40;102109.00;;;;5094053;28;20194;-79
2021/05/31 12:09:26;;;;;;;2.33;2.13;;;;;30.40;102105.00;;;;5084447;28;20802;-78
2021/05/31 12:11:54;;;;;;;2.92;1.92;;;;;30.40;102099.00;;;;5077450;28;20208;-79
2021/05/31 12:14:22;;;;;;;2.10;1.90;;;;;30.30;102105.00;;;;5086831;28;20595;-78
2021/05/31 12:17:00;;;;;;;4.80;2.42;;;;;30.30;102109.00;;;;5072465;28;20207;-77
2021/05/31 12:19:29;;;;;;;2.17;2.00;;;;;30.40;102099.00;;;;5085154;28;20679;-77
2021/05/31 12:21:57;;;;;;;3.55;2.40;;;;;30.40;102097.00;;;;5089917;28;20222;-77
2021/05/31 12:24:26;;;;;;;2.80;1.90;;;;;30.40;102102.00;;;;5094892;28;20204;-77